createdAt,value
2019-02-04T00:00:42.326Z,17.10
2019-02-04T00:05:47.327Z,15.97
2019-02-04T00:10:52.308Z,17.90
2019-02-04T00:15:57.303Z,18.70
2019-02-04T00:21:02.585Z,17.87
2019-02-04T00:26:07.628Z,17.53
2019-02-04T00:31:12.619Z,17.73
2019-02-04T00:36:17.626Z,18.87
2019-02-04T00:41:22.632Z,20.27
2019-02-04T00:46:27.655Z,20.20
2019-02-04T00:51:32.674Z,21.17
2019-02-04T00:56:37.635Z,22.40
2019-02-04T01:01:42.730Z,24.07
2019-02-04T01:06:47.709Z,21.83
2019-02-04T01:11:52.695Z,21.93
2019-02-04T01:17:03.600Z,23.93
2019-02-04T01:22:04.374Z,22.27
2019-02-04T01:27:09.372Z,23.47
2019-02-04T01:32:14.355Z,24.37
2019-02-04T01:37:19.352Z,24.47
2019-02-04T01:42:24.378Z,19.70
2019-02-04T01:47:29.357Z,23.60
2019-02-04T01:52:34.351Z,19.97
2019-02-04T01:57:39.450Z,20.20
2019-02-04T02:02:44.483Z,22.50
2019-02-04T02:07:49.870Z,25.00
2019-02-04T02:12:55.196Z,22.87
2019-02-04T02:18:00.209Z,27.70
2019-02-04T02:23:05.359Z,25.67
2019-02-04T02:28:10.371Z,23.23
2019-02-04T02:33:15.388Z,27.17
2019-02-04T02:38:20.383Z,21.80
2019-02-04T02:43:25.383Z,27.57
2019-02-04T02:48:30.397Z,31.13
2019-02-04T02:53:35.456Z,27.07
2019-02-04T02:58:40.447Z,27.77
2019-02-04T03:03:45.451Z,35.00
2019-02-04T03:08:50.444Z,39.13
2019-02-04T03:13:55.431Z,39.37
2019-02-04T03:19:00.429Z,34.20
2019-02-04T03:24:05.420Z,23.47
2019-02-04T03:29:10.605Z,24.70
2019-02-04T03:34:15.656Z,22.17
2019-02-04T03:39:20.654Z,38.50
2019-02-04T03:44:25.675Z,33.27
2019-02-04T03:49:30.789Z,41.83
2019-02-04T03:54:35.770Z,35.97
2019-02-04T03:59:40.780Z,36.83
2019-02-04T04:04:46.187Z,35.77
2019-02-04T04:09:51.198Z,36.17
2019-02-04T04:14:56.771Z,28.20
2019-02-04T04:20:01.768Z,29.47
2019-02-04T04:25:08.130Z,27.30
2019-02-04T04:30:21.580Z,22.47
2019-02-04T04:35:26.546Z,20.13
2019-02-04T04:40:31.584Z,21.33
2019-02-04T04:45:36.987Z,24.10
2019-02-04T04:50:42.005Z,25.13
2019-02-04T04:55:47.007Z,30.67
2019-02-04T05:00:52.003Z,27.03
2019-02-04T05:05:56.995Z,26.47
2019-02-04T05:11:02.296Z,27.87
2019-02-04T05:16:07.280Z,30.47
2019-02-04T05:21:12.279Z,36.20
2019-02-04T05:26:17.320Z,29.93
2019-02-04T05:31:22.337Z,37.23
2019-02-04T05:36:27.339Z,31.53
2019-02-04T05:41:32.335Z,34.23
2019-02-04T05:46:37.369Z,29.57
2019-02-04T05:51:42.388Z,32.80
2019-02-04T05:56:47.811Z,33.60
2019-02-04T06:01:52.809Z,31.23
2019-02-04T06:06:57.790Z,30.37
2019-02-04T06:12:02.805Z,31.43
2019-02-04T06:17:07.808Z,32.20
2019-02-04T06:22:12.836Z,32.57
2019-02-04T06:27:17.824Z,30.50
2019-02-04T06:32:23.169Z,32.73
2019-02-04T06:37:28.174Z,29.90
2019-02-04T06:42:33.174Z,33.97
2019-02-04T06:47:38.203Z,47.47
2019-02-04T06:52:43.216Z,30.77
2019-02-04T06:57:48.237Z,29.27
2019-02-04T07:02:53.239Z,35.20
2019-02-04T07:07:58.286Z,38.33
2019-02-04T07:13:03.256Z,31.80
2019-02-04T07:18:08.269Z,32.13
2019-02-04T07:23:13.317Z,33.40
2019-02-04T07:28:18.667Z,33.47
2019-02-04T07:33:23.706Z,43.73
2019-02-04T07:38:28.730Z,28.93
2019-02-04T07:43:33.900Z,28.47
2019-02-04T07:48:38.892Z,24.40
2019-02-04T07:53:44.199Z,30.87
2019-02-04T07:58:49.294Z,48.90
2019-02-04T08:03:54.631Z,33.50
2019-02-04T08:08:59.623Z,31.47
2019-02-04T08:14:05.091Z,30.53
2019-02-04T08:19:10.471Z,39.27
2019-02-04T08:24:15.459Z,42.53
2019-02-04T08:29:20.442Z,34.03
2019-02-04T08:34:25.446Z,32.10
2019-02-04T08:39:30.455Z,32.50
2019-02-04T08:44:35.419Z,34.33
2019-02-04T08:49:58.031Z,34.70
2019-02-04T08:54:56.716Z,35.40
2019-02-04T09:00:01.743Z,34.97
2019-02-04T09:05:09.554Z,34.73
2019-02-04T09:10:24.934Z,34.03
2019-02-04T09:15:30.339Z,65.97
2019-02-04T09:20:35.344Z,51.30
2019-02-04T09:25:40.299Z,39.87
2019-02-04T09:30:45.276Z,44.27
2019-02-04T09:35:50.304Z,49.50
2019-02-04T09:40:55.302Z,48.00
2019-02-04T09:46:00.274Z,43.37
2019-02-04T09:51:05.982Z,38.73
2019-02-04T09:56:10.950Z,37.23
2019-02-04T10:01:15.936Z,44.60
2019-02-04T10:06:20.986Z,42.13
2019-02-04T10:11:25.956Z,35.87
2019-02-04T10:16:30.916Z,38.87
2019-02-04T10:21:35.901Z,44.50
2019-02-04T10:26:41.397Z,43.47
2019-02-04T10:31:48.118Z,43.57
2019-02-04T10:36:53.103Z,48.53
2019-02-04T10:41:58.091Z,46.97
2019-02-04T10:47:03.285Z,43.77
2019-02-04T10:52:08.271Z,68.97
2019-02-04T10:57:13.319Z,23.50
2019-02-04T11:02:18.283Z,42.97
2019-02-04T11:07:23.355Z,28.00
2019-02-04T11:12:28.355Z,45.17
2019-02-04T11:17:33.322Z,24.43
2019-02-04T11:22:38.271Z,44.77
2019-02-04T11:27:43.680Z,64.43
2019-02-04T11:32:49.179Z,33.27
2019-02-04T11:37:55.437Z,35.97
2019-02-04T11:43:00.356Z,40.63
2019-02-04T11:48:08.525Z,31.40
2019-02-04T11:53:14.316Z,56.10
2019-02-04T11:58:19.258Z,33.57
2019-02-04T12:03:24.219Z,46.83
2019-02-04T12:08:29.198Z,41.07
2019-02-04T12:13:34.146Z,36.73
2019-02-04T12:18:39.110Z,34.63
2019-02-04T12:23:44.094Z,49.63
2019-02-04T12:28:49.056Z,49.13
2019-02-04T12:33:54.006Z,24.77
2019-02-04T12:38:58.972Z,35.63
2019-02-04T12:44:04.003Z,24.73
2019-02-04T12:49:08.959Z,27.80
2019-02-04T12:54:13.905Z,22.10
2019-02-04T12:59:18.859Z,26.30
2019-02-04T13:04:23.807Z,28.77
2019-02-04T13:09:28.767Z,25.63
2019-02-04T13:14:33.713Z,23.17
2019-02-04T13:19:40.087Z,23.67
2019-02-04T13:24:45.063Z,24.93
2019-02-04T13:29:50.318Z,24.50
2019-02-04T13:34:55.284Z,23.27
2019-02-04T13:40:01.386Z,22.73
2019-02-04T13:45:09.455Z,22.53
2019-02-04T13:50:15.037Z,25.43
2019-02-04T13:55:28.807Z,22.23
2019-02-04T14:00:34.110Z,25.13
2019-02-04T14:05:39.102Z,23.67
2019-02-04T14:10:46.259Z,28.27
2019-02-04T14:15:51.312Z,26.17
2019-02-04T14:20:56.267Z,22.13
2019-02-04T14:26:01.442Z,25.47
2019-02-04T14:31:06.403Z,36.17
2019-02-04T14:36:11.435Z,30.10
2019-02-04T14:41:16.450Z,25.47
2019-02-04T14:46:40.723Z,25.70
2019-02-04T14:52:21.860Z,24.60
2019-02-04T14:58:16.190Z,23.30
2019-02-04T15:04:08.615Z,30.90
2019-02-04T15:10:00.633Z,38.73
2019-02-04T15:15:49.635Z,24.30
2019-02-04T15:21:29.223Z,24.00
2019-02-04T15:26:46.301Z,19.57
2019-02-04T15:32:25.151Z,18.37
2019-02-04T15:37:52.743Z,30.87
2019-02-04T15:43:24.828Z,19.63
2019-02-04T15:48:54.801Z,26.73
2019-02-04T15:54:02.294Z,64.60
2019-02-04T15:59:07.272Z,41.70
2019-02-04T16:04:31.062Z,49.73
2019-02-04T16:09:36.042Z,32.43
2019-02-04T16:14:41.015Z,60.43
2019-02-04T16:19:45.984Z,79.17
2019-02-04T16:24:50.967Z,64.53
2019-02-04T16:29:55.939Z,95.43
2019-02-04T16:35:01.775Z,95.90
2019-02-04T16:40:10.126Z,108.30
2019-02-04T16:45:15.347Z,203.03
2019-02-04T16:50:22.518Z,112.60
2019-02-04T16:55:27.480Z,134.40
2019-02-04T17:00:33.008Z,108.23
2019-02-04T17:05:37.996Z,115.23
2019-02-04T17:10:43.084Z,106.60
2019-02-04T17:15:48.111Z,98.20
2019-02-04T17:20:53.118Z,137.87
2019-02-04T17:25:59.774Z,117.57
2019-02-04T17:31:05.143Z,101.30
2019-02-04T17:36:10.184Z,105.80
2019-02-04T17:41:15.295Z,100.80
2019-02-04T17:46:21.785Z,103.37
2019-02-04T17:51:26.786Z,147.13
2019-02-04T17:56:32.451Z,97.10
2019-02-04T18:01:38.690Z,101.43
2019-02-04T18:06:43.699Z,107.40
2019-02-04T18:11:49.934Z,124.67
2019-02-04T18:16:54.977Z,97.00
2019-02-04T18:21:59.967Z,104.27
2019-02-04T18:27:05.091Z,117.73
2019-02-04T18:32:11.935Z,121.67
2019-02-04T18:37:16.969Z,122.73
2019-02-04T18:42:22.253Z,119.07
2019-02-04T18:47:28.824Z,89.50
2019-02-04T18:52:37.141Z,119.90
2019-02-04T18:57:44.599Z,81.30
2019-02-04T19:02:52.158Z,64.20
2019-02-04T19:07:57.734Z,131.23
2019-02-04T19:13:02.747Z,81.07
2019-02-04T19:18:11.680Z,72.40
2019-02-04T19:23:16.723Z,67.23
2019-02-04T19:28:21.804Z,99.27
2019-02-04T19:33:26.781Z,66.03
2019-02-04T19:38:31.839Z,64.47
2019-02-04T19:43:37.051Z,116.73
2019-02-04T19:48:42.048Z,162.50
2019-02-04T19:53:47.092Z,114.83
2019-02-04T19:58:52.078Z,130.60
2019-02-04T20:03:57.091Z,79.17
2019-02-04T20:09:05.204Z,75.43
2019-02-04T20:14:09.777Z,96.13
2019-02-04T20:19:14.900Z,105.50
2019-02-04T20:24:19.975Z,94.50
2019-02-04T20:29:24.934Z,91.23
2019-02-04T20:34:29.994Z,110.23
2019-02-04T20:39:35.010Z,135.60
2019-02-04T20:44:40.064Z,104.40
2019-02-04T20:49:45.073Z,142.80
2019-02-04T20:54:50.454Z,71.27
2019-02-04T20:59:56.360Z,97.23
2019-02-04T21:05:01.287Z,79.53
2019-02-04T21:10:08.256Z,97.73
2019-02-04T21:15:13.687Z,107.77
2019-02-04T21:20:21.317Z,148.17
2019-02-04T21:25:26.359Z,93.73
2019-02-04T21:30:35.714Z,95.67
2019-02-04T21:35:40.770Z,104.83
2019-02-04T21:40:46.152Z,98.40
2019-02-04T21:45:51.163Z,107.23
2019-02-04T21:50:56.251Z,153.17
2019-02-04T21:56:01.264Z,126.50
2019-02-04T22:01:06.723Z,82.70
2019-02-04T22:06:11.719Z,95.93
2019-02-04T22:11:20.022Z,97.17
2019-02-04T22:16:25.027Z,91.87
2019-02-04T22:21:30.401Z,81.10
2019-02-04T22:26:35.761Z,93.60
2019-02-04T22:31:41.051Z,68.80
2019-02-04T22:36:46.377Z,90.63
2019-02-04T22:41:51.661Z,85.50
2019-02-04T22:46:56.646Z,117.97
2019-02-04T22:52:01.695Z,217.27
2019-02-04T22:57:06.680Z,111.20
2019-02-04T23:02:11.849Z,123.87
2019-02-04T23:07:16.954Z,105.73
2019-02-04T23:12:21.979Z,107.33
2019-02-04T23:17:26.987Z,149.37
2019-02-04T23:22:32.026Z,146.07
2019-02-04T23:27:37.444Z,122.17
2019-02-04T23:32:42.444Z,141.33
2019-02-04T23:37:47.502Z,143.00
2019-02-04T23:42:52.580Z,109.47
2019-02-04T23:47:57.556Z,108.93
2019-02-04T23:53:02.670Z,123.77
2019-02-04T23:58:07.686Z,93.80
